createdAt,value
2023-05-03T00:02:10.821Z,23.02
2023-05-03T00:04:41.532Z,15.95
2023-05-03T00:07:08.929Z,17.80
2023-05-03T00:09:36.204Z,17.08
2023-05-03T00:12:05.824Z,20.92
2023-05-03T00:14:33.146Z,24.95
2023-05-03T00:17:00.420Z,20.70
2023-05-03T00:19:31.905Z,19.33
2023-05-03T00:21:59.577Z,21.45
2023-05-03T00:24:26.862Z,20.38
2023-05-03T00:26:54.102Z,18.90
2023-05-03T00:29:22.821Z,19.50
2023-05-03T00:31:49.982Z,19.48
2023-05-03T00:34:17.206Z,16.77
2023-05-03T00:36:49.147Z,22.50
2023-05-03T00:39:16.360Z,19.00
2023-05-03T00:41:46.073Z,26.30
2023-05-03T00:44:13.261Z,14.00
2023-05-03T00:46:41.194Z,23.33
2023-05-03T00:49:11.749Z,22.58
2023-05-03T00:51:39.547Z,24.45
2023-05-03T00:54:10.156Z,26.15
2023-05-03T00:59:15.708Z,22.52
2023-05-03T01:01:42.781Z,22.67
2023-05-03T01:04:10.301Z,28.77
2023-05-03T01:06:45.371Z,34.70
2023-05-03T01:09:37.396Z,22.27
2023-05-03T01:12:09.949Z,21.02
2023-05-03T01:14:50.595Z,23.25
2023-05-03T01:17:18.303Z,22.33
2023-05-03T01:19:47.272Z,26.73
2023-05-03T01:22:36.169Z,20.20
2023-05-03T01:25:09.160Z,22.50
2023-05-03T01:27:39.464Z,22.08
2023-05-03T01:30:07.421Z,21.30
2023-05-03T01:32:53.396Z,20.63
2023-05-03T01:35:26.449Z,24.40
2023-05-03T01:37:54.832Z,22.85
2023-05-03T01:40:23.539Z,23.38
2023-05-03T01:43:03.115Z,18.73
2023-05-03T01:45:30.467Z,23.58
2023-05-03T01:47:57.801Z,21.27
2023-05-03T01:50:25.028Z,21.40
2023-05-03T01:52:53.253Z,25.08
2023-05-03T01:55:20.280Z,18.02
2023-05-03T02:00:24.859Z,28.52
2023-05-03T02:02:52.117Z,20.48
2023-05-03T02:05:19.366Z,18.55
2023-05-03T02:07:46.568Z,23.80
2023-05-03T02:10:14.996Z,20.98
2023-05-03T02:12:43.215Z,22.10
2023-05-03T02:15:13.230Z,19.48
2023-05-03T02:17:41.057Z,25.30
2023-05-03T02:20:11.607Z,20.73
2023-05-03T02:22:38.809Z,22.23
2023-05-03T02:25:06.923Z,24.25
2023-05-03T02:27:34.128Z,29.13
2023-05-03T02:30:04.602Z,20.73
2023-05-03T02:34:59.528Z,21.80
2023-05-03T02:37:29.466Z,29.08
2023-05-03T02:40:02.626Z,18.80
2023-05-03T02:42:32.408Z,23.33
2023-05-03T02:44:59.657Z,25.70
2023-05-03T02:47:27.160Z,25.70
2023-05-03T02:49:54.397Z,22.75
2023-05-03T02:52:21.736Z,22.33
2023-05-03T02:54:49.726Z,23.90
2023-05-03T02:57:16.968Z,24.38
2023-05-03T02:59:45.962Z,29.83
2023-05-03T03:02:13.115Z,25.52
2023-05-03T03:04:43.098Z,30.55
2023-05-03T03:07:16.058Z,24.77
2023-05-03T03:09:44.803Z,22.50
2023-05-03T03:12:12.074Z,24.02
2023-05-03T03:14:42.883Z,25.65
2023-05-03T03:17:10.144Z,26.13
2023-05-03T03:19:37.329Z,23.90
2023-05-03T03:22:04.440Z,22.80
2023-05-03T03:24:34.062Z,26.25
2023-05-03T03:27:01.561Z,27.80
2023-05-03T03:29:30.997Z,21.98
2023-05-03T03:31:58.648Z,23.23
2023-05-03T03:34:26.116Z,30.02
2023-05-03T03:36:53.363Z,25.38
2023-05-03T03:39:20.801Z,28.25
2023-05-03T03:41:51.045Z,37.53
2023-05-03T03:44:18.191Z,27.98
2023-05-03T03:46:48.572Z,32.38
2023-05-03T03:49:15.879Z,24.48
2023-05-03T03:51:43.242Z,33.17
2023-05-03T03:54:13.252Z,28.17
2023-05-03T03:56:40.482Z,26.80
2023-05-03T03:59:10.206Z,24.77
2023-05-03T04:01:37.436Z,32.30
2023-05-03T04:04:05.328Z,28.48
2023-05-03T04:06:33.357Z,25.17
2023-05-03T04:09:01.039Z,29.17
2023-05-03T04:11:28.279Z,31.80
2023-05-03T04:13:55.434Z,27.13
2023-05-03T04:16:22.695Z,32.88
2023-05-03T04:18:52.905Z,24.63
2023-05-03T04:21:20.045Z,26.38
2023-05-03T04:23:48.355Z,24.90
2023-05-03T04:26:30.097Z,38.65
2023-05-03T04:28:58.328Z,29.08
2023-05-03T04:31:25.866Z,39.65
2023-05-03T04:33:53.228Z,32.17
2023-05-03T04:36:22.935Z,31.50
2023-05-03T04:38:50.119Z,34.17
2023-05-03T04:41:19.980Z,33.22
2023-05-03T04:43:47.574Z,36.30
2023-05-03T04:46:14.972Z,31.55
2023-05-03T04:48:44.788Z,47.88
2023-05-03T04:51:14.938Z,33.93
2023-05-03T04:53:44.440Z,38.55
2023-05-03T04:56:12.170Z,32.28
2023-05-03T04:58:39.379Z,45.92
2023-05-03T05:01:07.219Z,32.17
2023-05-03T05:03:39.369Z,37.30
2023-05-03T05:06:15.334Z,40.13
2023-05-03T05:08:42.632Z,40.42
2023-05-03T05:11:22.641Z,36.53
2023-05-03T05:13:49.884Z,33.25
2023-05-03T05:16:17.754Z,35.50
2023-05-03T05:18:46.954Z,35.83
2023-05-03T05:21:16.138Z,37.42
2023-05-03T05:23:45.599Z,29.88
2023-05-03T05:26:13.065Z,32.05
2023-05-03T05:28:41.164Z,31.23
2023-05-03T05:31:08.319Z,37.42
2023-05-03T05:33:38.917Z,33.45
2023-05-03T05:36:06.374Z,53.42
2023-05-03T05:38:36.036Z,36.55
2023-05-03T05:41:05.993Z,37.95
2023-05-03T05:43:35.109Z,36.95
2023-05-03T05:46:02.464Z,29.33
2023-05-03T05:48:29.675Z,29.55
2023-05-03T05:51:00.196Z,29.55
2023-05-03T05:53:29.986Z,30.63
2023-05-03T05:55:59.616Z,35.07
2023-05-03T05:58:26.823Z,30.23
2023-05-03T06:01:08.953Z,34.20
2023-05-03T06:03:39.267Z,27.88
2023-05-03T06:06:19.009Z,39.63
2023-05-03T06:08:50.165Z,30.40
2023-05-03T06:11:27.631Z,30.85
2023-05-03T06:14:01.023Z,26.20
2023-05-03T06:16:34.889Z,27.27
2023-05-03T06:19:15.183Z,28.05
2023-05-03T06:21:43.542Z,25.05
2023-05-03T06:24:10.572Z,24.95
2023-05-03T06:26:37.672Z,34.25
2023-05-03T06:29:04.703Z,29.73
2023-05-03T06:31:32.108Z,32.97
2023-05-03T06:33:59.271Z,21.45
2023-05-03T06:36:27.799Z,27.92
2023-05-03T06:38:55.832Z,29.98
2023-05-03T06:41:22.868Z,21.92
2023-05-03T06:43:50.231Z,27.67
2023-05-03T06:46:19.590Z,20.50
2023-05-03T06:48:47.538Z,20.50
2023-05-03T06:51:16.968Z,25.27
2023-05-03T06:53:46.101Z,25.42
2023-05-03T06:56:13.154Z,17.40
2023-05-03T06:58:40.190Z,25.00
2023-05-03T07:01:07.238Z,28.40
2023-05-03T07:03:35.551Z,20.70
2023-05-03T07:06:03.993Z,19.45
2023-05-03T07:08:31.390Z,18.60
2023-05-03T07:10:58.687Z,19.25
2023-05-03T07:13:25.831Z,30.13
2023-05-03T07:15:52.951Z,19.08
2023-05-03T07:18:20.070Z,16.55
2023-05-03T07:20:47.271Z,20.15
2023-05-03T07:23:14.268Z,20.05
2023-05-03T07:25:41.427Z,18.48
2023-05-03T07:28:08.462Z,16.45
2023-05-03T07:30:35.463Z,22.33
2023-05-03T07:33:02.577Z,22.42
2023-05-03T07:35:30.516Z,16.60
2023-05-03T07:37:57.670Z,17.83
2023-05-03T07:40:24.889Z,17.98
2023-05-03T07:42:52.012Z,15.30
2023-05-03T07:45:19.863Z,19.85
2023-05-03T07:47:47.135Z,13.13
2023-05-03T07:50:14.437Z,21.95
2023-05-03T07:52:43.380Z,13.18
2023-05-03T07:55:10.693Z,16.17
2023-05-03T07:57:37.930Z,16.95
2023-05-03T08:00:06.243Z,16.88
2023-05-03T08:02:43.223Z,12.48
2023-05-03T08:05:13.872Z,14.00
2023-05-03T08:07:42.055Z,15.77
2023-05-03T08:10:09.438Z,17.20
2023-05-03T08:12:37.098Z,19.23
2023-05-03T08:15:06.928Z,15.20
2023-05-03T08:17:40.234Z,18.75
2023-05-03T08:20:08.362Z,15.75
2023-05-03T08:22:37.426Z,17.05
2023-05-03T08:25:05.092Z,17.23
2023-05-03T08:27:33.025Z,16.80
2023-05-03T08:30:03.913Z,16.73
2023-05-03T08:32:31.540Z,15.05
2023-05-03T08:34:58.706Z,12.75
2023-05-03T08:37:25.782Z,14.75
2023-05-03T08:39:53.076Z,18.52
2023-05-03T08:42:20.178Z,14.77
2023-05-03T08:44:48.441Z,12.30
2023-05-03T08:47:33.296Z,19.98
2023-05-03T08:50:01.126Z,14.35
2023-05-03T08:52:28.431Z,13.93
2023-05-03T08:54:55.611Z,11.38
2023-05-03T08:57:24.636Z,10.98
2023-05-03T08:59:54.279Z,18.17
2023-05-03T09:02:21.970Z,14.10
2023-05-03T09:04:49.142Z,11.57
2023-05-03T09:07:16.784Z,17.70
2023-05-03T09:09:46.342Z,13.27
2023-05-03T09:12:45.660Z,17.40
2023-05-03T09:15:22.048Z,14.10
2023-05-03T09:18:09.986Z,21.85
2023-05-03T09:20:38.478Z,14.15
2023-05-03T09:23:07.534Z,15.77
2023-05-03T09:25:43.109Z,8.98
2023-05-03T09:28:10.749Z,12.55
2023-05-03T09:30:38.281Z,16.17
2023-05-03T09:33:05.991Z,8.95
2023-05-03T09:35:33.980Z,14.68
2023-05-03T09:38:01.266Z,9.80
2023-05-03T09:40:29.366Z,8.98
2023-05-03T09:43:08.603Z,12.45
2023-05-03T09:45:39.280Z,9.75
2023-05-03T09:48:07.534Z,8.75
2023-05-03T09:50:36.535Z,11.57
2023-05-03T09:53:09.398Z,10.38
2023-05-03T09:55:37.815Z,11.68
2023-05-03T09:58:08.590Z,8.50
2023-05-03T10:00:39.348Z,10.00
2023-05-03T10:03:10.640Z,10.38
2023-05-03T10:05:46.946Z,9.35
2023-05-03T10:08:18.742Z,8.60
2023-05-03T10:10:46.810Z,10.48
2023-05-03T10:13:14.348Z,11.82
2023-05-03T10:15:43.012Z,13.27
2023-05-03T10:18:11.860Z,14.77
2023-05-03T10:20:51.740Z,12.15
2023-05-03T10:23:19.318Z,7.93
2023-05-03T10:26:05.481Z,11.68
2023-05-03T10:28:33.808Z,8.70
2023-05-03T10:31:01.206Z,7.18
2023-05-03T10:33:32.986Z,9.75
2023-05-03T10:36:01.357Z,8.70
2023-05-03T10:38:29.572Z,9.38
2023-05-03T10:40:59.570Z,15.90
2023-05-03T10:45:53.726Z,11.38
2023-05-03T10:48:22.605Z,9.38
2023-05-03T10:50:50.232Z,7.95
2023-05-03T10:53:35.382Z,10.00
2023-05-03T10:56:07.990Z,10.38
2023-05-03T10:58:45.291Z,8.18
2023-05-03T11:01:13.452Z,10.70
2023-05-03T11:03:53.712Z,5.95
2023-05-03T11:06:34.511Z,7.72
2023-05-03T11:09:02.629Z,7.65
2023-05-03T11:11:29.930Z,8.40
2023-05-03T11:14:00.340Z,9.30
2023-05-03T11:16:28.109Z,10.98
2023-05-03T11:18:55.620Z,6.53
2023-05-03T11:21:23.597Z,5.82
2023-05-03T11:23:53.651Z,6.75
2023-05-03T11:26:26.614Z,8.60
2023-05-03T11:28:59.303Z,7.75
2023-05-03T11:31:27.001Z,7.95
2023-05-03T11:33:54.189Z,8.43
2023-05-03T11:36:21.624Z,8.68
2023-05-03T11:38:49.096Z,6.03
2023-05-03T11:41:17.387Z,9.95
2023-05-03T11:43:45.562Z,9.10
2023-05-03T11:46:21.624Z,6.07
2023-05-03T11:48:49.103Z,9.00
2023-05-03T11:51:17.414Z,5.72
2023-05-03T11:53:47.513Z,6.07
2023-05-03T11:56:15.481Z,14.35
2023-05-03T12:01:23.986Z,6.38
2023-05-03T12:04:09.960Z,4.88
2023-05-03T12:06:38.306Z,5.75
2023-05-03T12:09:14.094Z,4.90
2023-05-03T12:11:44.100Z,9.15
2023-05-03T12:14:11.929Z,7.53
2023-05-03T12:19:28.203Z,6.95
2023-05-03T12:22:26.556Z,11.60
2023-05-03T12:24:54.220Z,5.38
2023-05-03T12:27:23.617Z,4.55
2023-05-03T12:29:52.200Z,6.13
2023-05-03T12:32:21.491Z,6.35
2023-05-03T12:34:51.918Z,6.05
2023-05-03T12:37:22.112Z,4.65
2023-05-03T12:39:58.442Z,7.07
2023-05-03T12:42:28.588Z,4.68
2023-05-03T12:44:59.559Z,7.72
2023-05-03T12:47:29.201Z,5.13
2023-05-03T12:49:59.539Z,5.03
2023-05-03T12:52:45.139Z,5.15
2023-05-03T12:55:17.947Z,6.60
2023-05-03T12:58:10.438Z,6.95
2023-05-03T13:00:37.235Z,4.38
2023-05-03T13:05:36.749Z,3.10
2023-05-03T13:32:54.189Z,5.43
2023-05-03T13:48:56.793Z,5.25
2023-05-03T13:51:25.797Z,7.78
2023-05-03T13:59:09.970Z,7.10
2023-05-03T14:01:38.807Z,10.73
2023-05-03T14:06:53.456Z,2.30
2023-05-03T14:09:21.329Z,5.30
2023-05-03T14:11:49.057Z,3.45
2023-05-03T14:14:16.450Z,5.03
2023-05-03T14:16:44.331Z,3.65
2023-05-03T14:21:51.568Z,4.50
2023-05-03T14:24:18.737Z,4.10
2023-05-03T14:26:46.249Z,4.70
2023-05-03T14:29:13.664Z,4.97
2023-05-03T14:31:41.070Z,7.72
2023-05-03T14:36:55.905Z,7.00
2023-05-03T14:39:23.560Z,4.05
2023-05-03T14:41:51.199Z,3.83
2023-05-03T14:44:18.433Z,4.63
2023-05-03T14:46:46.301Z,2.95
2023-05-03T14:49:14.665Z,6.30
2023-05-03T14:51:44.106Z,3.50
2023-05-03T14:54:12.217Z,1.80
2023-05-03T14:56:40.024Z,2.92
2023-05-03T14:59:07.315Z,3.50
2023-05-03T15:01:37.142Z,4.68
2023-05-03T15:04:07.717Z,3.92
2023-05-03T15:06:39.057Z,4.22
2023-05-03T15:09:08.507Z,3.35
2023-05-03T15:11:35.664Z,6.15
2023-05-03T15:14:02.797Z,4.53
2023-05-03T15:16:29.923Z,3.25
2023-05-03T15:21:45.629Z,6.00
2023-05-03T15:24:12.656Z,5.28
2023-05-03T15:26:39.979Z,3.22
2023-05-03T15:29:07.295Z,3.88
2023-05-03T15:31:36.402Z,8.95
2023-05-03T15:36:37.834Z,3.05
2023-05-03T15:41:38.807Z,3.05
2023-05-03T15:44:09.820Z,3.05
2023-05-03T15:46:40.691Z,4.18
2023-05-03T15:49:09.395Z,4.15
2023-05-03T15:51:37.139Z,4.88
2023-05-03T15:54:04.463Z,7.28
2023-05-03T15:56:34.132Z,2.78
2023-05-03T15:59:01.406Z,3.33
2023-05-03T16:01:31.324Z,3.92
2023-05-03T16:06:39.909Z,0.82
2023-05-03T16:09:11.336Z,3.03
2023-05-03T16:11:39.992Z,4.00
2023-05-03T16:14:11.341Z,4.63
2023-05-03T16:17:08.690Z,3.25
2023-05-03T16:19:37.713Z,4.13
2023-05-03T16:30:01.675Z,5.78
2023-05-03T16:32:30.081Z,4.68
2023-05-03T16:34:57.261Z,4.78
2023-05-03T16:37:26.315Z,5.10
2023-05-03T16:42:24.260Z,1.88
2023-05-03T16:44:53.786Z,2.72
2023-05-03T16:47:22.162Z,3.40
2023-05-03T16:49:49.259Z,2.40
2023-05-03T16:55:10.670Z,8.60
2023-05-03T17:00:23.780Z,2.70
2023-05-03T17:02:51.366Z,3.45
2023-05-03T17:05:20.238Z,3.85
2023-05-03T17:07:47.341Z,2.22
2023-05-03T17:10:14.481Z,6.20
2023-05-03T17:15:12.579Z,3.00
2023-05-03T17:17:40.337Z,4.03
2023-05-03T17:20:07.828Z,10.70
2023-05-03T17:22:36.086Z,2.38
2023-05-03T17:25:03.944Z,3.17
2023-05-03T17:30:12.514Z,3.03
2023-05-03T17:32:39.827Z,3.00
2023-05-03T17:35:07.654Z,2.92
2023-05-03T17:37:34.816Z,6.90
2023-05-03T17:40:02.102Z,3.10
2023-05-03T17:50:26.432Z,4.75
2023-05-03T17:52:55.801Z,5.05
2023-05-03T17:55:24.210Z,3.85
2023-05-03T17:57:51.380Z,6.22
2023-05-03T18:03:13.356Z,2.95
2023-05-03T18:05:40.660Z,6.07
2023-05-03T18:08:07.815Z,5.05
2023-05-03T18:10:34.821Z,4.22
2023-05-03T18:13:04.516Z,5.78
2023-05-03T18:18:02.766Z,2.47
2023-05-03T18:20:29.919Z,3.50
2023-05-03T18:22:57.076Z,3.72
2023-05-03T18:25:24.461Z,4.43
2023-05-03T18:27:52.092Z,6.18
2023-05-03T18:33:05.335Z,4.78
2023-05-03T18:35:33.552Z,4.40
2023-05-03T18:38:00.831Z,5.70
2023-05-03T18:40:30.013Z,4.85
2023-05-03T18:42:57.233Z,4.47
2023-05-03T18:45:27.479Z,6.57
2023-05-03T18:47:54.608Z,2.38
2023-05-03T18:50:22.743Z,4.25
2023-05-03T18:52:50.896Z,4.88
2023-05-03T18:55:18.076Z,3.45
2023-05-03T18:57:46.510Z,7.28
2023-05-03T19:02:59.198Z,8.27
2023-05-03T19:05:27.739Z,3.75
2023-05-03T19:07:56.258Z,5.50
2023-05-03T19:10:23.356Z,3.20
2023-05-03T19:12:52.710Z,5.25
2023-05-03T19:15:23.467Z,5.10
2023-05-03T19:17:50.565Z,4.47
2023-05-03T19:20:17.676Z,3.10
2023-05-03T19:22:44.894Z,6.65
2023-05-03T19:25:12.878Z,4.22
2023-05-03T19:27:40.627Z,4.18
2023-05-03T19:35:47.357Z,4.35
2023-05-03T19:38:15.006Z,7.40
2023-05-03T19:40:42.263Z,5.97
2023-05-03T19:43:09.353Z,4.35
2023-05-03T19:45:42.286Z,4.22
2023-05-03T19:48:16.925Z,6.13
2023-05-03T19:50:44.477Z,5.82
2023-05-03T19:53:12.002Z,6.88
2023-05-03T19:55:39.082Z,4.45
2023-05-03T19:58:07.262Z,4.82
2023-05-03T20:00:34.503Z,7.45
2023-05-03T20:05:45.052Z,4.43
2023-05-03T20:08:12.409Z,7.22
2023-05-03T20:10:39.563Z,7.05
2023-05-03T20:13:07.054Z,8.02
2023-05-03T20:15:34.890Z,4.82
2023-05-03T20:20:33.103Z,7.95
2023-05-03T20:23:01.467Z,3.97
2023-05-03T20:25:28.678Z,5.10
2023-05-03T20:27:55.946Z,8.00
2023-05-03T20:30:23.224Z,6.03
2023-05-03T20:35:29.141Z,5.88
2023-05-03T20:37:57.855Z,5.18
2023-05-03T20:43:05.311Z,6.50
2023-05-03T20:45:32.548Z,6.05
2023-05-03T20:50:39.715Z,5.28
2023-05-03T20:53:07.285Z,13.20
2023-05-03T20:55:35.631Z,6.53
2023-05-03T20:58:03.865Z,7.97
2023-05-03T21:00:34.054Z,8.80
2023-05-03T21:03:02.079Z,5.07
2023-05-03T21:05:32.751Z,6.85
2023-05-03T21:08:00.219Z,8.13
2023-05-03T21:10:27.480Z,5.28
2023-05-03T21:12:55.387Z,11.50
2023-05-03T21:15:22.860Z,8.82
2023-05-03T21:17:58.386Z,9.38
2023-05-03T21:20:25.974Z,9.82
2023-05-03T21:22:53.164Z,8.75
2023-05-03T21:25:21.807Z,5.63
2023-05-03T21:27:50.643Z,8.32
2023-05-03T21:30:19.350Z,4.70
2023-05-03T21:32:53.461Z,7.30
2023-05-03T21:35:22.224Z,5.65
2023-05-03T21:37:53.747Z,8.05
2023-05-03T21:40:23.348Z,5.68
2023-05-03T21:42:55.410Z,5.20
2023-05-03T21:45:23.625Z,7.22
2023-05-03T21:47:51.264Z,12.35
2023-05-03T21:50:18.764Z,4.68
2023-05-03T21:52:46.752Z,6.25
2023-05-03T21:55:14.166Z,4.85
2023-05-03T22:00:29.031Z,4.13
2023-05-03T22:02:56.262Z,5.30
2023-05-03T22:13:49.604Z,5.80
2023-05-03T22:16:26.101Z,12.80
2023-05-03T22:18:53.462Z,10.02
2023-05-03T22:21:20.796Z,5.60
2023-05-03T22:23:48.423Z,8.95
2023-05-03T22:26:15.589Z,6.07
2023-05-03T22:28:43.307Z,6.93
2023-05-03T22:31:13.757Z,9.45
2023-05-03T22:36:11.696Z,8.50
2023-05-03T22:38:41.289Z,11.43
2023-05-03T22:41:09.859Z,9.77
2023-05-03T22:43:38.909Z,6.32
2023-05-03T22:46:07.262Z,7.18
2023-05-03T22:48:38.315Z,4.75
2023-05-03T22:51:07.106Z,5.97
2023-05-03T22:53:37.464Z,9.02
2023-05-03T22:56:06.434Z,13.10
2023-05-03T22:58:38.211Z,7.22
2023-05-03T23:03:51.425Z,6.68
2023-05-03T23:06:18.890Z,7.78
2023-05-03T23:11:38.409Z,10.10
2023-05-03T23:14:07.801Z,5.03
2023-05-03T23:19:16.712Z,8.00
2023-05-03T23:21:48.236Z,10.45
2023-05-03T23:24:16.634Z,8.90
2023-05-03T23:26:44.299Z,6.80
2023-05-03T23:46:04.822Z,8.93
2023-05-03T23:48:33.928Z,17.42
2023-05-03T23:51:12.510Z,9.38
2023-05-03T23:53:41.141Z,9.10
2023-05-03T23:58:51.362Z,11.73
